Meteo Giornale » Osservazioni meteo Italia » Cervia

ore: 15:55 - Osservazioni Meteo Cervia
Lat. 44° 13' N Lon. 12° 18' E Alt. 6 metri s.l.m.

sereno Europe/Rome

30 °C

Sereno

Temp. 24 Ore

18 °C

31 °C

Est

18.5 Km/h

Dew point 22 °C

Umidità 62 %

Visibilità  10 Km

Il sole sorge alle ore 06:17

Il sole tramonta alle ore 20:11

Data e Ora Cielo e Fenomeni T °C DP °C Um. % Pres. hPa Vis. km Vento km/h
Oggi h: 15:55 sereno Sereno 30 22 62 1015 10 E 18.5
Oggi h: 14:55 sereno Sereno 31 21 55 1015 10 E/NE 16.7
Oggi h: 13:55 sereno Sereno 31 20 52 1015 10 NE 16.7
Oggi h: 12:55 sereno Sereno 31 19 48 1015 10 NE 13
Oggi h: 11:55 sereno Sereno 30 17 45 1015 10 N 3.7
Oggi h: 10:55 sereno Sereno 28 17 51 1015 10 N/NO 7.4
Oggi h: 09:55 sereno Sereno 26 19 65 1015 10 N 3.7
Oggi h: 08:55 sereno Sereno 24 18 69 1015 10 O 9.3
Oggi h: 07:55 sereno Sereno 19 18 93 1015 10 N 5.5
Oggi h: 06:55 sereno Sereno 18 17 93 1014 10 N 5.5
Oggi h: 05:55 sereno Sereno 19 18 93 1014 10 N 5.5
Oggi h: 03:55 sereno Sereno 20 18 88 1014 10 SO 9.3
Oggi h: 02:55 sereno Sereno 21 19 88 1014 10 SO 9.3
Oggi h: 01:55 sereno Sereno 21 19 88 1014 10 SO 11.1
Oggi h: 00:55 sereno Sereno 22 20 88 1014 10 SO 7.4
Ieri h: 23:55 sereno Sereno 22 21 94 1014 10 SO 9.3
Ieri h: 22:55 sereno Sereno 23 21 88 1014 10 N 3.7
Ieri h: 21:55 sereno Sereno 23 21 88 1014 10 N 3.7
Ieri h: 20:55 sereno Sereno 26 22 78 1014 10 E 9.3
Ieri h: 19:55 sereno Sereno 28 21 65 1014 10 E 11.1
Ieri h: 18:55 sereno Sereno 29 21 62 1014 10 E/SE 16.7
Ieri h: 17:55 sereno Sereno 29 21 62 1014 10 E 16.7
Ieri h: 16:55 sereno Sereno 29 20 58 1014 10 E 20.3